sensor_id;sensor_type;location;lat;lon;timestamp;P1;durP1;ratioP1;P2;durP2;ratioP2
29662;SDS011;16578;53.266;7.920;2023-03-31T00:00:09;19.42;;;5.53;;
29662;SDS011;16578;53.266;7.920;2023-03-31T00:02:36;15.65;;;5.35;;
29662;SDS011;16578;53.266;7.920;2023-03-31T00:05:05;15.10;;;3.90;;
29662;SDS011;16578;53.266;7.920;2023-03-31T00:07:32;17.90;;;3.75;;
29662;SDS011;16578;53.266;7.920;2023-03-31T00:10:02;17.30;;;4.30;;
29662;SDS011;16578;53.266;7.920;2023-03-31T00:12:29;18.17;;;3.72;;
29662;SDS011;16578;53.266;7.920;2023-03-31T00:14:55;13.95;;;3.72;;
29662;SDS011;16578;53.266;7.920;2023-03-31T00:17:20;19.23;;;4.80;;
29662;SDS011;16578;53.266;7.920;2023-03-31T00:19:46;19.92;;;4.22;;
29662;SDS011;16578;53.266;7.920;2023-03-31T00:22:14;16.65;;;4.65;;
29662;SDS011;16578;53.266;7.920;2023-03-31T00:24:46;18.05;;;3.40;;
29662;SDS011;16578;53.266;7.920;2023-03-31T00:27:11;13.40;;;3.65;;
29662;SDS011;16578;53.266;7.920;2023-03-31T00:29:37;17.00;;;3.95;;
29662;SDS011;16578;53.266;7.920;2023-03-31T00:32:05;13.32;;;3.33;;
29662;SDS011;16578;53.266;7.920;2023-03-31T00:34:31;23.67;;;4.90;;
29662;SDS011;16578;53.266;7.920;2023-03-31T00:36:58;20.88;;;4.75;;
29662;SDS011;16578;53.266;7.920;2023-03-31T00:39:27;17.55;;;4.32;;
29662;SDS011;16578;53.266;7.920;2023-03-31T00:41:56;15.63;;;3.67;;
29662;SDS011;16578;53.266;7.920;2023-03-31T00:44:23;17.50;;;5.57;;
29662;SDS011;16578;53.266;7.920;2023-03-31T00:46:54;18.35;;;4.80;;
29662;SDS011;16578;53.266;7.920;2023-03-31T00:49:40;17.02;;;4.03;;
29662;SDS011;16578;53.266;7.920;2023-03-31T00:52:16;12.65;;;3.70;;
29662;SDS011;16578;53.266;7.920;2023-03-31T00:54:52;14.27;;;3.67;;
29662;SDS011;16578;53.266;7.920;2023-03-31T00:57:21;14.43;;;3.60;;
29662;SDS011;16578;53.266;7.920;2023-03-31T00:59:50;13.25;;;3.30;;
29662;SDS011;16578;53.266;7.920;2023-03-31T01:02:22;17.38;;;4.60;;
29662;SDS011;16578;53.266;7.920;2023-03-31T01:04:52;21.70;;;4.18;;
29662;SDS011;16578;53.266;7.920;2023-03-31T01:07:44;19.60;;;5.30;;
29662;SDS011;16578;53.266;7.920;2023-03-31T01:10:12;15.63;;;3.78;;
29662;SDS011;16578;53.266;7.920;2023-03-31T01:12:38;15.15;;;3.95;;
29662;SDS011;16578;53.266;7.920;2023-03-31T01:15:07;14.88;;;3.35;;
29662;SDS011;16578;53.266;7.920;2023-03-31T01:17:33;15.07;;;4.60;;
29662;SDS011;16578;53.266;7.920;2023-03-31T01:28:18;15.38;;;4.50;;
29662;SDS011;16578;53.266;7.920;2023-03-31T01:31:09;19.23;;;4.50;;
29662;SDS011;16578;53.266;7.920;2023-03-31T01:33:54;15.20;;;3.95;;
29662;SDS011;16578;53.266;7.920;2023-03-31T01:39:27;11.13;;;3.70;;
29662;SDS011;16578;53.266;7.920;2023-03-31T01:42:14;16.33;;;3.95;;
29662;SDS011;16578;53.266;7.920;2023-03-31T01:47:24;12.02;;;3.88;;
29662;SDS011;16578;53.266;7.920;2023-03-31T01:56:14;14.43;;;4.05;;
29662;SDS011;16578;53.266;7.920;2023-03-31T01:58:53;15.48;;;4.30;;
29662;SDS011;16578;53.266;7.920;2023-03-31T02:04:20;11.35;;;4.18;;
29662;SDS011;16578;53.266;7.920;2023-03-31T02:06:59;14.20;;;4.20;;
29662;SDS011;16578;53.266;7.920;2023-03-31T02:09:30;13.90;;;3.53;;
29662;SDS011;16578;53.266;7.920;2023-03-31T02:12:00;13.55;;;3.78;;
29662;SDS011;16578;53.266;7.920;2023-03-31T02:14:31;10.50;;;3.47;;
29662;SDS011;16578;53.266;7.920;2023-03-31T02:16:59;15.38;;;3.45;;
29662;SDS011;16578;53.266;7.920;2023-03-31T02:19:35;10.32;;;3.40;;
29662;SDS011;16578;53.266;7.920;2023-03-31T02:22:04;13.82;;;2.97;;
29662;SDS011;16578;53.266;7.920;2023-03-31T02:24:32;7.40;;;3.05;;
29662;SDS011;16578;53.266;7.920;2023-03-31T02:27:05;11.75;;;2.95;;
29662;SDS011;16578;53.266;7.920;2023-03-31T02:29:39;16.13;;;3.85;;
29662;SDS011;16578;53.266;7.920;2023-03-31T02:34:34;13.43;;;3.78;;
29662;SDS011;16578;53.266;7.920;2023-03-31T02:37:00;13.70;;;3.72;;
29662;SDS011;16578;53.266;7.920;2023-03-31T02:39:30;12.68;;;3.85;;
29662;SDS011;16578;53.266;7.920;2023-03-31T02:41:58;12.95;;;4.55;;
29662;SDS011;16578;53.266;7.920;2023-03-31T02:44:30;13.80;;;4.38;;
29662;SDS011;16578;53.266;7.920;2023-03-31T02:47:01;14.85;;;4.03;;
29662;SDS011;16578;53.266;7.920;2023-03-31T02:49:31;13.77;;;3.67;;
29662;SDS011;16578;53.266;7.920;2023-03-31T02:52:01;13.43;;;4.05;;
29662;SDS011;16578;53.266;7.920;2023-03-31T03:00:31;16.38;;;4.90;;
29662;SDS011;16578;53.266;7.920;2023-03-31T03:03:34;13.30;;;3.80;;
29662;SDS011;16578;53.266;7.920;2023-03-31T03:06:18;13.85;;;4.10;;
29662;SDS011;16578;53.266;7.920;2023-03-31T03:11:37;14.15;;;4.13;;
29662;SDS011;16578;53.266;7.920;2023-03-31T03:17:12;11.65;;;4.32;;
29662;SDS011;16578;53.266;7.920;2023-03-31T03:19:42;10.75;;;3.65;;
29662;SDS011;16578;53.266;7.920;2023-03-31T03:22:08;12.15;;;3.85;;
29662;SDS011;16578;53.266;7.920;2023-03-31T03:24:34;14.60;;;4.70;;
29662;SDS011;16578;53.266;7.920;2023-03-31T03:26:59;12.32;;;4.07;;
29662;SDS011;16578;53.266;7.920;2023-03-31T03:29:25;14.50;;;4.85;;
29662;SDS011;16578;53.266;7.920;2023-03-31T03:31:51;8.60;;;3.28;;
29662;SDS011;16578;53.266;7.920;2023-03-31T03:34:17;8.15;;;3.38;;
29662;SDS011;16578;53.266;7.920;2023-03-31T03:36:44;12.50;;;3.75;;
29662;SDS011;16578;53.266;7.920;2023-03-31T03:39:10;17.30;;;3.60;;
29662;SDS011;16578;53.266;7.920;2023-03-31T03:41:36;9.70;;;3.38;;
29662;SDS011;16578;53.266;7.920;2023-03-31T03:44:02;8.88;;;2.72;;
29662;SDS011;16578;53.266;7.920;2023-03-31T03:46:27;8.98;;;3.13;;
29662;SDS011;16578;53.266;7.920;2023-03-31T03:48:53;9.50;;;3.33;;
29662;SDS011;16578;53.266;7.920;2023-03-31T03:51:20;8.35;;;3.00;;
29662;SDS011;16578;53.266;7.920;2023-03-31T03:53:45;9.20;;;3.38;;
29662;SDS011;16578;53.266;7.920;2023-03-31T03:56:11;7.72;;;3.00;;
29662;SDS011;16578;53.266;7.920;2023-03-31T03:58:36;14.05;;;4.35;;
29662;SDS011;16578;53.266;7.920;2023-03-31T04:01:02;8.48;;;2.75;;
29662;SDS011;16578;53.266;7.920;2023-03-31T04:03:28;9.18;;;3.72;;
29662;SDS011;16578;53.266;7.920;2023-03-31T04:05:54;12.65;;;3.00;;
29662;SDS011;16578;53.266;7.920;2023-03-31T04:08:20;7.43;;;3.08;;
29662;SDS011;16578;53.266;7.920;2023-03-31T04:10:46;10.90;;;2.80;;
29662;SDS011;16578;53.266;7.920;2023-03-31T04:13:16;12.27;;;3.00;;
29662;SDS011;16578;53.266;7.920;2023-03-31T04:15:43;9.48;;;2.83;;
29662;SDS011;16578;53.266;7.920;2023-03-31T04:18:09;15.70;;;2.75;;
29662;SDS011;16578;53.266;7.920;2023-03-31T04:20:42;8.40;;;2.70;;
29662;SDS011;16578;53.266;7.920;2023-03-31T04:23:18;10.98;;;3.22;;
29662;SDS011;16578;53.266;7.920;2023-03-31T04:25:47;14.48;;;3.83;;
29662;SDS011;16578;53.266;7.920;2023-03-31T04:28:14;11.00;;;3.10;;
29662;SDS011;16578;53.266;7.920;2023-03-31T04:30:39;9.93;;;2.97;;
29662;SDS011;16578;53.266;7.920;2023-03-31T04:33:05;13.85;;;3.53;;
29662;SDS011;16578;53.266;7.920;2023-03-31T04:35:30;7.65;;;2.72;;
29662;SDS011;16578;53.266;7.920;2023-03-31T04:38:17;7.28;;;2.50;;
29662;SDS011;16578;53.266;7.920;2023-03-31T04:40:44;11.73;;;3.08;;
29662;SDS011;16578;53.266;7.920;2023-03-31T04:43:14;10.98;;;2.70;;
29662;SDS011;16578;53.266;7.920;2023-03-31T04:45:41;11.70;;;2.75;;
29662;SDS011;16578;53.266;7.920;2023-03-31T04:48:06;10.25;;;3.28;;
29662;SDS011;16578;53.266;7.920;2023-03-31T04:50:32;8.73;;;3.08;;
29662;SDS011;16578;53.266;7.920;2023-03-31T04:52:58;9.27;;;2.60;;
29662;SDS011;16578;53.266;7.920;2023-03-31T04:55:23;6.32;;;2.65;;
29662;SDS011;16578;53.266;7.920;2023-03-31T04:57:49;8.10;;;3.25;;
29662;SDS011;16578;53.266;7.920;2023-03-31T05:00:15;9.07;;;3.58;;
29662;SDS011;16578;53.266;7.920;2023-03-31T05:02:42;11.75;;;3.15;;
29662;SDS011;16578;53.266;7.920;2023-03-31T05:05:07;9.90;;;2.92;;
29662;SDS011;16578;53.266;7.920;2023-03-31T05:07:34;7.88;;;2.97;;
29662;SDS011;16578;53.266;7.920;2023-03-31T05:09:59;9.88;;;3.75;;
29662;SDS011;16578;53.266;7.920;2023-03-31T05:12:25;11.48;;;3.35;;
29662;SDS011;16578;53.266;7.920;2023-03-31T05:14:51;6.60;;;2.60;;
29662;SDS011;16578;53.266;7.920;2023-03-31T05:17:16;8.57;;;3.78;;
29662;SDS011;16578;53.266;7.920;2023-03-31T05:19:42;7.95;;;2.40;;
29662;SDS011;16578;53.266;7.920;2023-03-31T05:22:08;7.28;;;2.47;;
29662;SDS011;16578;53.266;7.920;2023-03-31T05:24:33;10.82;;;2.92;;
29662;SDS011;16578;53.266;7.920;2023-03-31T05:26:59;13.55;;;3.50;;
29662;SDS011;16578;53.266;7.920;2023-03-31T05:29:25;10.40;;;2.83;;
29662;SDS011;16578;53.266;7.920;2023-03-31T05:31:51;9.68;;;2.83;;
29662;SDS011;16578;53.266;7.920;2023-03-31T05:34:18;6.68;;;2.85;;
29662;SDS011;16578;53.266;7.920;2023-03-31T05:36:44;10.88;;;2.92;;
29662;SDS011;16578;53.266;7.920;2023-03-31T05:39:12;5.90;;;2.28;;
29662;SDS011;16578;53.266;7.920;2023-03-31T05:41:38;8.35;;;2.97;;
29662;SDS011;16578;53.266;7.920;2023-03-31T05:44:03;9.38;;;3.38;;
29662;SDS011;16578;53.266;7.920;2023-03-31T05:46:29;5.80;;;2.70;;
29662;SDS011;16578;53.266;7.920;2023-03-31T05:48:55;13.75;;;3.67;;
29662;SDS011;16578;53.266;7.920;2023-03-31T05:51:21;4.72;;;2.38;;
29662;SDS011;16578;53.266;7.920;2023-03-31T05:53:47;8.68;;;3.17;;
29662;SDS011;16578;53.266;7.920;2023-03-31T05:56:12;6.82;;;2.97;;
29662;SDS011;16578;53.266;7.920;2023-03-31T05:58:38;8.88;;;3.85;;
29662;SDS011;16578;53.266;7.920;2023-03-31T06:01:05;9.52;;;3.47;;
29662;SDS011;16578;53.266;7.920;2023-03-31T06:03:36;4.18;;;2.72;;
29662;SDS011;16578;53.266;7.920;2023-03-31T06:06:05;8.45;;;3.35;;
29662;SDS011;16578;53.266;7.920;2023-03-31T06:08:32;4.55;;;2.95;;
29662;SDS011;16578;53.266;7.920;2023-03-31T06:10:59;6.18;;;3.25;;
29662;SDS011;16578;53.266;7.920;2023-03-31T06:13:24;7.07;;;3.05;;
29662;SDS011;16578;53.266;7.920;2023-03-31T06:15:54;6.72;;;3.72;;
29662;SDS011;16578;53.266;7.920;2023-03-31T06:18:21;8.10;;;3.42;;
29662;SDS011;16578;53.266;7.920;2023-03-31T06:20:46;6.43;;;3.47;;
29662;SDS011;16578;53.266;7.920;2023-03-31T06:23:12;7.32;;;3.38;;
29662;SDS011;16578;53.266;7.920;2023-03-31T06:25:37;6.30;;;3.53;;
29662;SDS011;16578;53.266;7.920;2023-03-31T06:28:03;7.22;;;3.42;;
29662;SDS011;16578;53.266;7.920;2023-03-31T06:30:30;7.68;;;3.50;;
29662;SDS011;16578;53.266;7.920;2023-03-31T06:32:55;8.20;;;3.88;;
29662;SDS011;16578;53.266;7.920;2023-03-31T06:35:21;5.53;;;3.20;;
29662;SDS011;16578;53.266;7.920;2023-03-31T06:37:47;7.30;;;2.70;;
29662;SDS011;16578;53.266;7.920;2023-03-31T06:40:12;7.53;;;3.33;;
29662;SDS011;16578;53.266;7.920;2023-03-31T06:42:38;5.50;;;2.75;;
29662;SDS011;16578;53.266;7.920;2023-03-31T06:45:03;6.60;;;3.30;;
29662;SDS011;16578;53.266;7.920;2023-03-31T06:47:29;7.82;;;2.95;;
29662;SDS011;16578;53.266;7.920;2023-03-31T06:49:55;3.40;;;2.60;;
29662;SDS011;16578;53.266;7.920;2023-03-31T06:52:21;5.22;;;3.08;;
29662;SDS011;16578;53.266;7.920;2023-03-31T06:54:46;5.57;;;2.70;;
29662;SDS011;16578;53.266;7.920;2023-03-31T06:57:12;3.78;;;2.28;;
29662;SDS011;16578;53.266;7.920;2023-03-31T06:59:37;5.45;;;2.95;;
29662;SDS011;16578;53.266;7.920;2023-03-31T07:02:03;4.95;;;3.03;;
29662;SDS011;16578;53.266;7.920;2023-03-31T07:04:28;6.75;;;2.80;;
29662;SDS011;16578;53.266;7.920;2023-03-31T07:06:54;5.40;;;3.13;;
29662;SDS011;16578;53.266;7.920;2023-03-31T07:09:21;3.95;;;2.63;;
29662;SDS011;16578;53.266;7.920;2023-03-31T07:11:47;6.40;;;3.08;;
29662;SDS011;16578;53.266;7.920;2023-03-31T07:14:13;7.72;;;3.28;;
29662;SDS011;16578;53.266;7.920;2023-03-31T07:16:39;5.05;;;3.00;;
29662;SDS011;16578;53.266;7.920;2023-03-31T07:19:05;3.30;;;2.85;;
29662;SDS011;16578;53.266;7.920;2023-03-31T07:21:31;7.28;;;2.97;;
29662;SDS011;16578;53.266;7.920;2023-03-31T07:23:57;4.53;;;2.38;;
29662;SDS011;16578;53.266;7.920;2023-03-31T07:26:23;5.43;;;3.00;;
29662;SDS011;16578;53.266;7.920;2023-03-31T07:28:49;4.00;;;3.00;;
29662;SDS011;16578;53.266;7.920;2023-03-31T07:31:15;6.00;;;3.10;;
29662;SDS011;16578;53.266;7.920;2023-03-31T07:33:41;6.82;;;3.47;;
29662;SDS011;16578;53.266;7.920;2023-03-31T07:36:09;4.43;;;2.72;;
29662;SDS011;16578;53.266;7.920;2023-03-31T07:38:35;4.88;;;2.92;;
29662;SDS011;16578;53.266;7.920;2023-03-31T07:41:00;5.35;;;3.03;;
29662;SDS011;16578;53.266;7.920;2023-03-31T07:43:26;8.93;;;4.25;;
29662;SDS011;16578;53.266;7.920;2023-03-31T07:45:51;8.00;;;3.70;;
29662;SDS011;16578;53.266;7.920;2023-03-31T07:48:17;5.32;;;3.78;;
29662;SDS011;16578;53.266;7.920;2023-03-31T07:50:43;6.88;;;3.92;;
29662;SDS011;16578;53.266;7.920;2023-03-31T07:53:08;5.13;;;3.40;;
29662;SDS011;16578;53.266;7.920;2023-03-31T07:55:34;7.75;;;4.03;;
29662;SDS011;16578;53.266;7.920;2023-03-31T07:57:59;6.70;;;5.07;;
29662;SDS011;16578;53.266;7.920;2023-03-31T08:00:25;7.90;;;4.18;;
29662;SDS011;16578;53.266;7.920;2023-03-31T08:02:51;11.02;;;5.30;;
29662;SDS011;16578;53.266;7.920;2023-03-31T08:05:18;6.68;;;5.07;;
29662;SDS011;16578;53.266;7.920;2023-03-31T08:07:45;7.68;;;4.80;;
29662;SDS011;16578;53.266;7.920;2023-03-31T08:10:17;7.28;;;5.47;;
29662;SDS011;16578;53.266;7.920;2023-03-31T08:12:45;6.78;;;5.07;;
29662;SDS011;16578;53.266;7.920;2023-03-31T08:15:11;6.97;;;5.10;;
29662;SDS011;16578;53.266;7.920;2023-03-31T08:17:37;8.80;;;5.40;;
29662;SDS011;16578;53.266;7.920;2023-03-31T08:20:03;6.22;;;5.25;;
29662;SDS011;16578;53.266;7.920;2023-03-31T08:22:34;7.47;;;5.43;;
29662;SDS011;16578;53.266;7.920;2023-03-31T08:25:00;8.00;;;6.00;;
29662;SDS011;16578;53.266;7.920;2023-03-31T08:27:26;8.38;;;6.00;;
29662;SDS011;16578;53.266;7.920;2023-03-31T08:29:52;10.05;;;6.88;;
29662;SDS011;16578;53.266;7.920;2023-03-31T08:32:20;8.07;;;6.20;;
29662;SDS011;16578;53.266;7.920;2023-03-31T08:34:48;11.05;;;7.03;;
29662;SDS011;16578;53.266;7.920;2023-03-31T08:37:13;7.30;;;5.90;;
29662;SDS011;16578;53.266;7.920;2023-03-31T08:39:39;9.00;;;6.53;;
29662;SDS011;16578;53.266;7.920;2023-03-31T08:42:10;9.93;;;6.80;;
29662;SDS011;16578;53.266;7.920;2023-03-31T08:44:47;9.52;;;7.00;;
29662;SDS011;16578;53.266;7.920;2023-03-31T08:47:31;11.32;;;8.15;;
29662;SDS011;16578;53.266;7.920;2023-03-31T08:50:06;13.13;;;7.68;;
29662;SDS011;16578;53.266;7.920;2023-03-31T08:52:44;10.20;;;7.43;;
29662;SDS011;16578;53.266;7.920;2023-03-31T08:55:30;11.20;;;7.20;;
29662;SDS011;16578;53.266;7.920;2023-03-31T09:09:37;15.95;;;8.57;;
29662;SDS011;16578;53.266;7.920;2023-03-31T09:12:34;13.95;;;7.78;;
29662;SDS011;16578;53.266;7.920;2023-03-31T09:15:27;8.43;;;7.22;;
29662;SDS011;16578;53.266;7.920;2023-03-31T09:18:02;8.70;;;7.43;;
29662;SDS011;16578;53.266;7.920;2023-03-31T09:20:50;8.57;;;7.55;;
29662;SDS011;16578;53.266;7.920;2023-03-31T09:23:23;9.50;;;8.57;;
29662;SDS011;16578;53.266;7.920;2023-03-31T09:25:57;8.23;;;7.25;;
29662;SDS011;16578;53.266;7.920;2023-03-31T09:28:36;9.60;;;6.88;;
29662;SDS011;16578;53.266;7.920;2023-03-31T09:31:07;8.85;;;7.28;;
29662;SDS011;16578;53.266;7.920;2023-03-31T09:33:39;12.18;;;9.25;;
29662;SDS011;16578;53.266;7.920;2023-03-31T09:36:14;8.90;;;7.40;;
29662;SDS011;16578;53.266;7.920;2023-03-31T09:38:42;9.27;;;7.35;;
29662;SDS011;16578;53.266;7.920;2023-03-31T09:41:09;10.50;;;8.95;;
29662;SDS011;16578;53.266;7.920;2023-03-31T09:43:36;10.90;;;8.13;;
29662;SDS011;16578;53.266;7.920;2023-03-31T09:46:09;10.90;;;7.65;;
29662;SDS011;16578;53.266;7.920;2023-03-31T09:48:47;9.05;;;6.95;;
29662;SDS011;16578;53.266;7.920;2023-03-31T09:51:34;7.72;;;6.93;;
29662;SDS011;16578;53.266;7.920;2023-03-31T09:54:09;7.32;;;6.60;;
29662;SDS011;16578;53.266;7.920;2023-03-31T09:56:47;8.90;;;7.32;;
29662;SDS011;16578;53.266;7.920;2023-03-31T09:59:32;9.02;;;7.00;;
29662;SDS011;16578;53.266;7.920;2023-03-31T10:02:00;7.75;;;6.53;;
29662;SDS011;16578;53.266;7.920;2023-03-31T10:04:43;8.57;;;7.13;;
29662;SDS011;16578;53.266;7.920;2023-03-31T10:07:10;10.77;;;7.72;;
29662;SDS011;16578;53.266;7.920;2023-03-31T10:09:37;11.15;;;7.20;;
29662;SDS011;16578;53.266;7.920;2023-03-31T10:12:07;13.27;;;7.65;;
29662;SDS011;16578;53.266;7.920;2023-03-31T10:14:40;10.73;;;6.75;;
29662;SDS011;16578;53.266;7.920;2023-03-31T10:17:17;8.02;;;6.75;;
29662;SDS011;16578;53.266;7.920;2023-03-31T10:24:45;10.48;;;6.22;;
29662;SDS011;16578;53.266;7.920;2023-03-31T10:27:25;8.07;;;5.95;;
29662;SDS011;16578;53.266;7.920;2023-03-31T10:29:57;8.15;;;6.10;;
29662;SDS011;16578;53.266;7.920;2023-03-31T10:32:33;8.27;;;6.78;;
29662;SDS011;16578;53.266;7.920;2023-03-31T10:35:06;10.43;;;6.50;;
29662;SDS011;16578;53.266;7.920;2023-03-31T10:37:40;6.68;;;5.70;;
29662;SDS011;16578;53.266;7.920;2023-03-31T10:40:13;8.40;;;6.75;;
29662;SDS011;16578;53.266;7.920;2023-03-31T10:42:45;9.00;;;5.63;;
29662;SDS011;16578;53.266;7.920;2023-03-31T10:45:28;9.85;;;6.07;;
29662;SDS011;16578;53.266;7.920;2023-03-31T10:47:56;8.07;;;6.22;;
29662;SDS011;16578;53.266;7.920;2023-03-31T10:50:28;7.03;;;5.43;;
29662;SDS011;16578;53.266;7.920;2023-03-31T10:53:00;6.63;;;5.13;;
29662;SDS011;16578;53.266;7.920;2023-03-31T10:55:36;8.63;;;5.55;;
29662;SDS011;16578;53.266;7.920;2023-03-31T10:58:17;7.07;;;5.22;;
29662;SDS011;16578;53.266;7.920;2023-03-31T11:07:24;8.13;;;5.05;;
29662;SDS011;16578;53.266;7.920;2023-03-31T11:10:02;10.52;;;5.60;;
29662;SDS011;16578;53.266;7.920;2023-03-31T11:13:05;8.50;;;5.25;;
29662;SDS011;16578;53.266;7.920;2023-03-31T11:30:23;7.78;;;4.45;;
29662;SDS011;16578;53.266;7.920;2023-03-31T11:33:15;8.63;;;4.40;;
29662;SDS011;16578;53.266;7.920;2023-03-31T11:38:49;12.20;;;3.95;;
29662;SDS011;16578;53.266;7.920;2023-03-31T11:41:38;5.28;;;3.95;;
29662;SDS011;16578;53.266;7.920;2023-03-31T11:44:14;5.53;;;3.63;;
29662;SDS011;16578;53.266;7.920;2023-03-31T11:46:52;10.60;;;4.00;;
29662;SDS011;16578;53.266;7.920;2023-03-31T11:49:19;6.15;;;3.85;;
29662;SDS011;16578;53.266;7.920;2023-03-31T11:51:59;6.20;;;3.17;;
29662;SDS011;16578;53.266;7.920;2023-03-31T11:54:38;3.25;;;2.53;;
29662;SDS011;16578;53.266;7.920;2023-03-31T11:57:35;3.25;;;2.47;;
29662;SDS011;16578;53.266;7.920;2023-03-31T12:05:23;6.15;;;3.30;;
29662;SDS011;16578;53.266;7.920;2023-03-31T12:10:21;3.80;;;2.75;;
29662;SDS011;16578;53.266;7.920;2023-03-31T12:15:36;4.18;;;2.45;;
29662;SDS011;16578;53.266;7.920;2023-03-31T12:18:10;3.03;;;2.70;;
29662;SDS011;16578;53.266;7.920;2023-03-31T12:20:41;3.40;;;2.50;;
29662;SDS011;16578;53.266;7.920;2023-03-31T12:23:17;2.85;;;2.50;;
29662;SDS011;16578;53.266;7.920;2023-03-31T12:26:06;4.38;;;3.20;;
29662;SDS011;16578;53.266;7.920;2023-03-31T12:28:43;4.10;;;2.33;;
29662;SDS011;16578;53.266;7.920;2023-03-31T12:31:14;3.08;;;2.45;;
29662;SDS011;16578;53.266;7.920;2023-03-31T12:33:55;2.63;;;2.20;;
29662;SDS011;16578;53.266;7.920;2023-03-31T12:36:31;4.00;;;2.13;;
29662;SDS011;16578;53.266;7.920;2023-03-31T12:39:20;1.92;;;1.77;;
29662;SDS011;16578;53.266;7.920;2023-03-31T12:59:35;4.30;;;1.98;;
29662;SDS011;16578;53.266;7.920;2023-03-31T13:04:41;3.58;;;1.80;;
29662;SDS011;16578;53.266;7.920;2023-03-31T13:10:25;3.33;;;1.83;;
29662;SDS011;16578;53.266;7.920;2023-03-31T13:13:02;3.17;;;2.22;;
29662;SDS011;16578;53.266;7.920;2023-03-31T13:15:39;3.78;;;2.45;;
29662;SDS011;16578;53.266;7.920;2023-03-31T13:18:05;3.58;;;2.50;;
29662;SDS011;16578;53.266;7.920;2023-03-31T13:20:40;4.28;;;3.00;;
29662;SDS011;16578;53.266;7.920;2023-03-31T13:23:14;5.43;;;2.85;;
29662;SDS011;16578;53.266;7.920;2023-03-31T13:30:55;2.28;;;1.95;;
29662;SDS011;16578;53.266;7.920;2023-03-31T13:33:50;4.32;;;2.05;;
29662;SDS011;16578;53.266;7.920;2023-03-31T13:50:29;3.67;;;1.70;;
29662;SDS011;16578;53.266;7.920;2023-03-31T14:01:09;4.10;;;2.08;;
29662;SDS011;16578;53.266;7.920;2023-03-31T14:03:47;4.47;;;2.88;;
29662;SDS011;16578;53.266;7.920;2023-03-31T14:06:37;4.55;;;2.78;;
29662;SDS011;16578;53.266;7.920;2023-03-31T14:09:09;4.10;;;2.47;;
29662;SDS011;16578;53.266;7.920;2023-03-31T14:11:39;4.75;;;2.63;;
29662;SDS011;16578;53.266;7.920;2023-03-31T14:14:10;4.93;;;2.60;;
29662;SDS011;16578;53.266;7.920;2023-03-31T14:16:44;6.88;;;2.65;;
29662;SDS011;16578;53.266;7.920;2023-03-31T14:22:18;6.05;;;3.08;;
29662;SDS011;16578;53.266;7.920;2023-03-31T14:24:58;5.53;;;2.78;;
29662;SDS011;16578;53.266;7.920;2023-03-31T14:31:00;4.85;;;1.83;;
29662;SDS011;16578;53.266;7.920;2023-03-31T14:33:39;4.75;;;2.22;;
29662;SDS011;16578;53.266;7.920;2023-03-31T14:36:25;2.72;;;1.67;;
29662;SDS011;16578;53.266;7.920;2023-03-31T14:38:54;4.82;;;2.25;;
29662;SDS011;16578;53.266;7.920;2023-03-31T14:41:26;4.85;;;2.42;;
29662;SDS011;16578;53.266;7.920;2023-03-31T14:43:56;5.50;;;2.17;;
29662;SDS011;16578;53.266;7.920;2023-03-31T14:46:25;6.15;;;2.22;;
29662;SDS011;16578;53.266;7.920;2023-03-31T14:48:53;9.80;;;2.67;;
29662;SDS011;16578;53.266;7.920;2023-03-31T14:51:26;5.47;;;2.85;;
29662;SDS011;16578;53.266;7.920;2023-03-31T14:54:00;4.82;;;2.03;;
29662;SDS011;16578;53.266;7.920;2023-03-31T14:56:30;6.03;;;2.50;;
29662;SDS011;16578;53.266;7.920;2023-03-31T14:59:02;7.18;;;3.10;;
29662;SDS011;16578;53.266;7.920;2023-03-31T15:01:30;6.70;;;2.97;;
29662;SDS011;16578;53.266;7.920;2023-03-31T15:04:13;7.45;;;2.75;;
29662;SDS011;16578;53.266;7.920;2023-03-31T15:06:41;6.07;;;2.45;;
29662;SDS011;16578;53.266;7.920;2023-03-31T15:09:11;6.97;;;3.13;;
29662;SDS011;16578;53.266;7.920;2023-03-31T15:11:58;7.15;;;2.90;;
29662;SDS011;16578;53.266;7.920;2023-03-31T15:14:27;6.10;;;2.45;;
29662;SDS011;16578;53.266;7.920;2023-03-31T15:17:03;6.68;;;3.00;;
29662;SDS011;16578;53.266;7.920;2023-03-31T15:19:33;6.63;;;3.22;;
29662;SDS011;16578;53.266;7.920;2023-03-31T15:22:14;7.75;;;3.08;;
29662;SDS011;16578;53.266;7.920;2023-03-31T15:24:42;6.97;;;2.80;;
29662;SDS011;16578;53.266;7.920;2023-03-31T15:30:02;8.27;;;3.28;;
29662;SDS011;16578;53.266;7.920;2023-03-31T15:32:40;8.82;;;3.53;;
29662;SDS011;16578;53.266;7.920;2023-03-31T15:35:06;6.80;;;2.83;;
29662;SDS011;16578;53.266;7.920;2023-03-31T15:37:46;6.30;;;2.85;;
29662;SDS011;16578;53.266;7.920;2023-03-31T15:40:21;7.78;;;2.75;;
29662;SDS011;16578;53.266;7.920;2023-03-31T15:42:58;6.35;;;2.65;;
29662;SDS011;16578;53.266;7.920;2023-03-31T15:48:18;6.07;;;3.05;;
29662;SDS011;16578;53.266;7.920;2023-03-31T15:50:56;6.50;;;3.00;;
29662;SDS011;16578;53.266;7.920;2023-03-31T15:53:30;8.98;;;3.35;;
29662;SDS011;16578;53.266;7.920;2023-03-31T15:56:00;6.35;;;3.05;;
29662;SDS011;16578;53.266;7.920;2023-03-31T15:58:46;10.13;;;3.72;;
29662;SDS011;16578;53.266;7.920;2023-03-31T16:01:17;5.88;;;3.35;;
29662;SDS011;16578;53.266;7.920;2023-03-31T16:03:43;7.13;;;3.10;;
29662;SDS011;16578;53.266;7.920;2023-03-31T16:09:18;7.03;;;3.90;;
29662;SDS011;16578;53.266;7.920;2023-03-31T16:11:49;6.25;;;3.50;;
29662;SDS011;16578;53.266;7.920;2023-03-31T16:14:19;6.85;;;3.30;;
29662;SDS011;16578;53.266;7.920;2023-03-31T16:19:28;6.88;;;3.15;;
29662;SDS011;16578;53.266;7.920;2023-03-31T16:22:02;6.35;;;3.42;;
29662;SDS011;16578;53.266;7.920;2023-03-31T16:24:32;8.57;;;3.75;;
29662;SDS011;16578;53.266;7.920;2023-03-31T16:27:00;7.65;;;3.20;;
29662;SDS011;16578;53.266;7.920;2023-03-31T16:29:30;8.98;;;2.83;;
29662;SDS011;16578;53.266;7.920;2023-03-31T16:34:34;8.95;;;3.25;;
29662;SDS011;16578;53.266;7.920;2023-03-31T16:39:48;1.85;;;1.40;;
29662;SDS011;16578;53.266;7.920;2023-03-31T16:42:14;1.35;;;0.98;;
29662;SDS011;16578;53.266;7.920;2023-03-31T16:44:40;1.90;;;0.80;;
29662;SDS011;16578;53.266;7.920;2023-03-31T16:47:06;1.80;;;1.00;;
29662;SDS011;16578;53.266;7.920;2023-03-31T16:49:31;2.92;;;1.73;;
29662;SDS011;16578;53.266;7.920;2023-03-31T16:51:57;3.35;;;1.55;;
29662;SDS011;16578;53.266;7.920;2023-03-31T16:54:22;1.17;;;0.75;;
29662;SDS011;16578;53.266;7.920;2023-03-31T16:56:48;0.88;;;0.70;;
29662;SDS011;16578;53.266;7.920;2023-03-31T16:59:14;1.40;;;0.57;;
29662;SDS011;16578;53.266;7.920;2023-03-31T17:01:39;1.48;;;0.80;;
29662;SDS011;16578;53.266;7.920;2023-03-31T17:04:05;2.53;;;0.95;;
29662;SDS011;16578;53.266;7.920;2023-03-31T17:06:31;2.85;;;1.60;;
29662;SDS011;16578;53.266;7.920;2023-03-31T17:08:57;1.70;;;1.20;;
29662;SDS011;16578;53.266;7.920;2023-03-31T17:11:22;2.40;;;1.50;;
29662;SDS011;16578;53.266;7.920;2023-03-31T17:13:48;4.63;;;1.85;;
29662;SDS011;16578;53.266;7.920;2023-03-31T17:16:14;2.83;;;1.55;;
29662;SDS011;16578;53.266;7.920;2023-03-31T17:18:39;2.88;;;1.60;;
29662;SDS011;16578;53.266;7.920;2023-03-31T17:21:06;5.45;;;1.85;;
29662;SDS011;16578;53.266;7.920;2023-03-31T17:23:34;3.03;;;1.60;;
29662;SDS011;16578;53.266;7.920;2023-03-31T17:26:01;3.17;;;1.60;;
29662;SDS011;16578;53.266;7.920;2023-03-31T17:28:28;2.55;;;1.65;;
29662;SDS011;16578;53.266;7.920;2023-03-31T17:31:00;1.85;;;1.48;;
29662;SDS011;16578;53.266;7.920;2023-03-31T17:33:26;4.47;;;1.98;;
29662;SDS011;16578;53.266;7.920;2023-03-31T17:35:56;5.63;;;1.90;;
29662;SDS011;16578;53.266;7.920;2023-03-31T17:38:23;3.50;;;1.33;;
29662;SDS011;16578;53.266;7.920;2023-03-31T17:40:49;3.83;;;1.27;;
29662;SDS011;16578;53.266;7.920;2023-03-31T17:43:14;3.78;;;1.27;;
29662;SDS011;16578;53.266;7.920;2023-03-31T17:45:40;5.93;;;1.98;;